Whale Point, California Weather observations

Data are for observation ending at time listed.
 Day   Time    Ave.   Ave.  Ave.  Vector   Max.   Stn.    Total    Solar   Ave.  
  of    of     Air    Rel.  Wind   Wind    Wind   Baro.  Precip.   Rad.    Soil  
Year   Day     Temp.  Hum.  Speed  Dir.    Gust   Pres.                    Temp. 
2015   (PST)    F      %     mph   deg.    mph     mb.     in.     W/m2     F   
------------------------------------------------------------------------------
 141    5:40   51.8    86    2.2   310      6.6   993.6    0.00      28    66.7
 141    5:50   51.7    86    1.4    66      4.7   993.6    0.00      39    66.6
 141    6:00   51.9    86    0.9   265      4.3   993.6    0.00      53    66.5
 141    6:10   52.0    86    0.9   212      2.3   993.6    0.00      63    66.5
 141    6:20   52.2    86    0.0   182      0.4   993.6    0.00      67    66.5
 141    6:30   52.5    85    0.1   330      0.7   993.6    0.00      83    66.4
 141    6:40   52.8    85    1.2   234      2.1   993.9    0.00     106    66.3
 141    6:50   53.0    85    0.6   117      2.3   993.9    0.00     118    66.3
 141    7:00   53.3    84    1.5   204      2.8   993.6    0.00     142    66.2
 141    7:10   53.6    83    1.7   231      3.3   993.6    0.00     176    66.1
 141    7:20   53.9    82    2.1   214      3.8   993.6    0.00     229    66.1
 141    7:30   54.0    81    2.2   208      4.0   993.6    0.00     243    66.1
 141    7:40   54.1    80    2.0   212      3.7   993.6    0.00     234    66.0
 141    7:50   54.5    80    1.7   201      3.4   993.6    0.00     235    66.0
 141    8:00   55.1    79    1.7   222      2.8   993.9    0.00     260    66.0
 141    8:10   55.5    77    1.6   220      3.1   993.6    0.00     290    65.9
 141    8:20   55.6    77    3.2   211      4.5   993.6    0.00     332    65.9
 141    8:30   55.7    75    3.6   216      4.7   993.9    0.00     367    65.9
 141    8:40   55.9    76    3.1   214      4.6   993.9    0.00     521    65.9
 141    8:50   55.7    76    3.2   209      5.0   993.9    0.00     481    65.9
 141    9:00   56.2    75    2.8   216      5.0   993.9    0.00     887    65.9
 141    9:10   57.7    71    4.0   216      6.9   993.9    0.00     946    65.9
 141    9:20   57.4    71    4.5   223      6.6   993.9    0.00     854    65.9
 141    9:30   57.0    71    4.7   224      6.1   993.9    0.00     573    65.9
 141    9:40   57.0    70    3.2   237      5.3   993.9    0.00     430    65.9
 141    9:50   56.8    72    4.0   223      6.4   993.9    0.00     401    66.0
 141   10:00   56.3    77    3.5   211      6.2   993.9    0.00     454    66.1
 141   10:10   56.1    78    3.6   216      5.3   993.9    0.00     484    66.1
 141   10:20   56.2    76    3.5   224      5.4   994.2    0.00     505    66.1
 141   10:30   56.2    76    4.4   226      6.9   994.2    0.00     543    66.2
 141   10:40   56.4    77    4.7   211      6.9   994.2    0.00     605    66.2
 141   10:50   56.4    80    3.8   222      6.7   994.6    0.00     597    66.3
 141   11:00   56.7    80    3.7   228      6.7   994.6    0.00     928    66.3
 141   11:10   56.6    80    4.3   225      7.2   994.6    0.00     696    66.4
 141   11:20   56.1    80    3.6   228      6.1   994.6    0.00     626    66.5
 141   11:30   56.5    78    4.0   224      6.6   994.6    0.00     676    66.5
 141   11:40   57.5    75    5.0   223      7.8   994.6    0.00     819    66.6
 141   11:50   57.4    76    4.5   230      7.0   994.6    0.00     765    66.7
 141   12:00   57.2    76    4.4   225      6.6   994.6    0.00     695    66.8
 141   12:10   56.8    78    4.2   224      6.7   994.6    0.00     614    66.9
 141   12:20   57.0    79    4.0   229      6.5   994.6    0.00     530    67.0
 141   12:30   56.6    78    3.8   229      5.8   994.6    0.00     503    67.1
 141   12:40   56.3    78    4.4   237      6.9   994.2    0.00     574    67.2
 141   12:50   57.1    75    4.3   236      6.3   994.2    0.00     599    67.3
 141   13:00   57.3    76    5.0   229      7.6   994.2    0.00     642    67.4
 141   13:10   57.4    76    4.4   236      6.3   994.2    0.00     605    67.5
 141   13:20   57.7    76    4.3   234      7.2   994.2    0.00     582    67.6
 141   13:30   57.7    75    5.0   225      8.6   994.2    0.00     512    67.7
 141   13:40   56.8    77    3.9   240      6.1   994.2    0.00     456    67.8
 141   13:50   56.7    78    3.5   237      7.0   994.2    0.00     468    67.9
 141   14:00   57.2    77    3.8   229      6.6   994.2    0.00     449    68.0
 141   14:10   57.3    76    2.4   252      6.9   994.2    0.00     527    68.1
 141   14:20   58.3    74    3.0   259      6.2   993.9    0.00     492    68.3
 141   14:30   58.6    73    2.8   263      6.1   993.9    0.00     495    68.4
 141   14:40   58.6    72    3.5   278      8.7   993.6    0.00     505    68.5
 141   14:50   59.3    70    4.0   286      8.4   993.6    0.00     553    68.6
 141   15:00   60.5    66    3.2   292      8.3   993.6    0.00     512    68.7
 141   15:10   60.1    69    4.3   252      8.3   993.6    0.00     534    68.8
 141   15:20   60.8    66    3.3   310      6.1   993.6    0.00     611    68.9
 141   15:30   61.8    62    3.4   309      7.7   993.2    0.00     658    69.0
 141   15:40   61.0    63    3.3   313      6.9   993.2    0.00     502    69.1
 141   15:50   59.7    66    3.9   318      8.0   993.6    0.00     553    69.2
 141   16:00   60.0    65    4.0   313      8.4   993.6    0.00     504    69.3
 141   16:10   59.6    66    3.9   306      7.6   993.6    0.00     460    69.4
 141   16:20   58.7    68    4.0   304      7.3   993.6    0.00     298    69.5
 141   16:30   57.6    71    3.6   294      8.2   993.6    0.00     222    69.7
 141   16:40   56.9    75    3.8   276      8.1   993.6    0.00     198    69.8
 141   16:50   56.2    78    3.9   277      9.0   993.2    0.00     189    69.9
 141   17:00   56.0    78    3.1   238     11.1   993.2    0.00     166    69.9
 141   17:10   55.9    77    2.9   301      8.0   993.6    0.00     134    70.0
 141   17:20   55.6    78    5.1   223      9.6   993.2    0.00      97    70.2
 141   17:30   55.3    80    4.6   245      8.1   993.2    0.00      72    70.2
 141   17:40   55.2    80    4.1   253      8.2   993.2    0.00      82    70.3
 141   17:50   55.0    80    1.1   323      3.4   993.2    0.00      68    70.3
 141   18:00   55.0    80    0.9   308      5.6   993.2    0.00      33    70.4
 141   18:10   55.2    79    1.6   240      4.9   993.2    0.00      47    70.5
 141   18:20   55.2    79    1.6   272      4.4   993.2    0.00      40    70.5
 141   18:30   55.2    79    2.0   289      5.0   993.6    0.00      33    70.6
 141   18:40   54.7    81    3.4   339      8.4   993.6    0.00      26    70.6
 141   18:50   54.5    82    3.7   341      9.1   993.6    0.00      14    70.6
 141   19:00   54.2    84    6.3     2     11.2   993.6    0.00       8    70.6
 141   19:10   54.2    85    4.6     1      9.5   993.6    0.00       4    70.6
 141   19:20   54.1    85    2.8   348      9.3   993.9    0.00       1    70.6
 141   19:30   54.2    85    3.0    11      9.3   993.9    0.00       0    70.6
 141   19:40   54.2    85    2.6    10      8.6   993.9    0.00       0    70.6
 141   19:50   54.3    84    2.5     0      6.4   993.9    0.00       0    70.6
 141   20:00   54.4    84    1.9   331      4.3   993.9    0.00       0    70.6
 141   20:10   54.4    84    5.3    12     10.6   993.9    0.00       0    70.6
 141   20:20   54.5    83    3.7   352      7.8   993.9    0.00       0    70.5
 141   20:30   54.5    83    2.8   340      5.7   994.2    0.00       0    70.5
 141   20:40   54.6    82    4.1   337      8.2   994.2    0.00       0    70.4
 141   20:50   54.6    82    5.0   350      8.8   994.2    0.00       0    70.4
 141   21:00   54.4    83    6.3     2     11.2   994.2    0.00       0    70.3
 141   21:10   54.3    83    4.1   346      7.7   994.2    0.00       0    70.3
 141   21:20   54.5    82    2.9   343      6.4   994.2    0.00       0    70.2
 141   21:30   54.5    83    2.4   326      5.3   994.6    0.00       0    70.2
 141   21:40   54.5    82    3.5    10      9.4   994.6    0.00       0    70.1
 141   21:50   54.6    81    3.7    17      6.2   994.6    0.00       0    70.0
 141   22:00   54.6    81    4.3    17      6.9   994.6    0.00       0    70.0
 141   22:10   54.7    80    3.8    30      8.0   994.6    0.00       0    69.9
 141   22:20   54.6    80    1.1   290      3.2   994.6    0.00       0    69.9
 141   22:30   54.1    82    0.7    61      2.5   994.6    0.00       0    69.8
 141   22:40   53.7    83    0.5   110      1.5   994.6    0.00       0    69.7
 141   22:50   53.4    84    1.6   113      2.6   994.6    0.00       0    69.7
 141   23:00   53.3    84    1.3    51      2.9   994.6    0.00       0    69.6
 141   23:10   53.2    85    1.9    48      4.3   994.6    0.00       0    69.5
 141   23:20   53.1    86    4.1    56      5.8   994.6    0.00       0    69.5
 141   23:30   53.3    85    1.3    64      3.0   994.6    0.00       0    69.4
 141   23:40   53.0    85    0.7   110      2.6   994.6    0.00       0    69.3
 141   23:50   53.1    85    0.0   140      0.3   994.6    0.00       0    69.3
 142    0:00   53.1    86    0.2    79      1.5   994.6    0.00       0    69.2
 142    0:10   53.1    85    1.1    38      2.5   994.6    0.00       0    69.1
 142    0:20   52.8    85    2.8    68      4.4   994.6    0.00       0    69.0
 142    0:30   52.8    84    1.1    69      2.6   994.6    0.00       0    69.0
 142    0:40   53.0    83    1.7    12      2.9   994.6    0.00       0    68.9
 142    0:50   53.3    82    1.1    57      2.4   994.6    0.00       0    68.8
 142    1:00   53.5    82    2.5    28      4.2   994.6    0.00       0    68.8
 142    1:10   53.5    82    3.4    27      5.8   994.6    0.00       0    68.7
 142    1:20   53.5    81    4.9    13      8.0   994.2    0.00       0    68.6
 142    1:30   53.1    81    3.5    45      5.6   994.2    0.00       0    68.5
 142    1:40   52.2    82    4.0    62      5.8   994.6    0.00       0    68.5
 142    1:50   52.6    83    3.5    73      6.2   994.6    0.00       0    68.4
 142    2:00   52.6    82    4.4    68      7.4   994.6    0.00       0    68.3
 142    2:10   52.7    81    4.5    80      7.3   994.6    0.00       0    68.2
 142    2:20   51.8    82    5.6    62      7.7   994.6    0.00       0    68.2
 142    2:30   51.6    82    5.9    52      7.7   994.6    0.00       0    68.1
 142    2:40   52.0    79    5.9    52      8.0   994.6    0.00       0    68.0
 142    2:50   52.0    78    6.4    52      8.0   994.6    0.00       0    67.9
 142    3:00   51.3    79    6.5    62      8.8   994.2    0.00       0    67.9
 142    3:10   51.0    80    6.9    64      8.9   994.2    0.00       0    67.8
 142    3:20   51.2    78    6.9    51      9.6   994.2    0.00       0    67.7
 142    3:30   51.3    77    6.0    58      7.7   994.2    0.00       0    67.6
 142    3:40   51.6    75    7.2    56      9.1   994.2    0.00       0    67.5
 142    3:50   51.3    75    6.8    66      9.3   994.2    0.00       0    67.4
 142    4:00   51.4    75    7.0    70      9.9   994.2    0.00       0    67.4
 142    4:10   50.8    76    7.1    55     10.4   994.2    0.00       0    67.3
 142    4:20   51.7    74    5.8    65      8.8   994.6    0.00       0    67.2
 142    4:30   51.4    73    6.5    67      8.7   994.6    0.00       0    67.1
 142    4:40   51.5    73    6.1    53      8.5   994.6    0.00       0    67.0
 142    4:50   51.7    71    7.1    46     10.0   994.6    0.00       1    66.9
 142    5:00   51.1    72    6.7    62      9.0   994.6    0.00       3    66.9
 142    5:10   51.5    72    6.4    70      8.6   994.6    0.00       7    66.8
 142    5:20   50.9    72    5.1    53      8.3   994.6    0.00      12    66.7
 142    5:30   51.5    72    5.1    65      8.3   994.6    0.00      16    66.6

Return to Whale Point graphs page.


Western Regional Climate Center,wrcc@dri.edu